sensor_id;sensor_type;location;lat;lon;timestamp;pressure;altitude;pressure_sealevel;temperature;humidity
56992;BME280;42885;49.754;18.636;2022-07-22T00:02:47;98423.28;;;22.30;100.00
56992;BME280;42885;49.754;18.636;2022-07-22T00:05:36;98431.09;;;22.19;100.00
56992;BME280;42885;49.754;18.636;2022-07-22T00:08:25;98429.22;;;22.11;100.00
56992;BME280;42885;49.754;18.636;2022-07-22T00:11:15;98425.59;;;22.37;100.00
56992;BME280;42885;49.754;18.636;2022-07-22T00:14:04;98429.78;;;22.35;100.00
56992;BME280;42885;49.754;18.636;2022-07-22T00:16:53;98436.61;;;22.30;100.00
56992;BME280;42885;49.754;18.636;2022-07-22T00:19:42;98444.60;;;22.34;100.00
56992;BME280;42885;49.754;18.636;2022-07-22T00:22:31;98444.28;;;22.41;100.00
56992;BME280;42885;49.754;18.636;2022-07-22T00:25:21;98445.94;;;22.30;100.00
56992;BME280;42885;49.754;18.636;2022-07-22T00:28:11;98448.08;;;22.18;100.00
56992;BME280;42885;49.754;18.636;2022-07-22T00:31:00;98454.89;;;22.20;100.00
56992;BME280;42885;49.754;18.636;2022-07-22T00:33:50;98460.22;;;22.20;100.00
56992;BME280;42885;49.754;18.636;2022-07-22T00:36:40;98456.57;;;22.13;100.00
56992;BME280;42885;49.754;18.636;2022-07-22T00:39:29;98464.72;;;22.11;100.00
56992;BME280;42885;49.754;18.636;2022-07-22T00:42:19;98467.59;;;22.35;100.00
56992;BME280;42885;49.754;18.636;2022-07-22T00:48:18;98470.76;;;22.26;100.00
56992;BME280;42885;49.754;18.636;2022-07-22T00:51:08;98471.59;;;22.35;100.00
56992;BME280;42885;49.754;18.636;2022-07-22T00:53:58;98472.59;;;22.34;100.00
56992;BME280;42885;49.754;18.636;2022-07-22T00:56:48;98468.91;;;22.22;100.00
56992;BME280;42885;49.754;18.636;2022-07-22T00:59:39;98468.52;;;21.96;100.00
56992;BME280;42885;49.754;18.636;2022-07-22T01:02:28;98470.69;;;22.01;100.00
56992;BME280;42885;49.754;18.636;2022-07-22T01:05:17;98468.05;;;22.13;100.00
56992;BME280;42885;49.754;18.636;2022-07-22T01:08:08;98472.73;;;22.24;100.00
56992;BME280;42885;49.754;18.636;2022-07-22T01:11:15;98471.53;;;22.10;100.00
56992;BME280;42885;49.754;18.636;2022-07-22T01:14:04;98475.70;;;22.12;100.00
56992;BME280;42885;49.754;18.636;2022-07-22T01:16:54;98473.70;;;22.14;100.00
56992;BME280;42885;49.754;18.636;2022-07-22T01:19:43;98481.50;;;22.04;100.00
56992;BME280;42885;49.754;18.636;2022-07-22T01:22:33;98474.84;;;21.99;100.00
56992;BME280;42885;49.754;18.636;2022-07-22T01:25:22;98479.34;;;22.07;100.00
56992;BME280;42885;49.754;18.636;2022-07-22T01:28:12;98479.17;;;21.96;100.00
56992;BME280;42885;49.754;18.636;2022-07-22T01:31:03;98473.45;;;21.87;100.00
56992;BME280;42885;49.754;18.636;2022-07-22T01:33:52;98481.50;;;22.04;100.00
56992;BME280;42885;49.754;18.636;2022-07-22T01:36:42;98485.17;;;21.98;100.00
56992;BME280;42885;49.754;18.636;2022-07-22T01:39:31;98485.86;;;22.05;100.00
56992;BME280;42885;49.754;18.636;2022-07-22T01:42:21;98492.31;;;21.98;100.00
56992;BME280;42885;49.754;18.636;2022-07-22T01:45:11;98499.09;;;21.84;100.00
56992;BME280;42885;49.754;18.636;2022-07-22T01:48:03;98511.34;;;21.42;100.00
56992;BME280;42885;49.754;18.636;2022-07-22T01:51:04;98503.02;;;21.45;100.00
56992;BME280;42885;49.754;18.636;2022-07-22T01:53:53;98507.48;;;21.67;100.00
56992;BME280;42885;49.754;18.636;2022-07-22T01:56:43;98510.85;;;21.73;100.00
56992;BME280;42885;49.754;18.636;2022-07-22T01:59:33;98507.55;;;21.75;100.00
56992;BME280;42885;49.754;18.636;2022-07-22T02:02:22;98509.48;;;21.99;100.00
56992;BME280;42885;49.754;18.636;2022-07-22T02:05:11;98513.63;;;21.98;100.00
56992;BME280;42885;49.754;18.636;2022-07-22T02:08:03;98517.92;;;21.91;100.00
56992;BME280;42885;49.754;18.636;2022-07-22T02:10:54;98526.98;;;22.02;100.00
56992;BME280;42885;49.754;18.636;2022-07-22T02:13:43;98522.23;;;22.22;100.00
56992;BME280;42885;49.754;18.636;2022-07-22T02:16:33;98527.98;;;22.05;100.00
56992;BME280;42885;49.754;18.636;2022-07-22T02:19:22;98520.80;;;22.02;100.00
56992;BME280;42885;49.754;18.636;2022-07-22T02:22:11;98535.83;;;22.07;100.00
56992;BME280;42885;49.754;18.636;2022-07-22T02:25:01;98535.98;;;22.05;100.00
56992;BME280;42885;49.754;18.636;2022-07-22T02:27:50;98546.63;;;22.01;100.00
56992;BME280;42885;49.754;18.636;2022-07-22T02:30:40;98547.48;;;22.06;100.00
56992;BME280;42885;49.754;18.636;2022-07-22T02:33:30;98547.03;;;22.19;100.00
56992;BME280;42885;49.754;18.636;2022-07-22T02:36:20;98548.88;;;22.26;100.00
56992;BME280;42885;49.754;18.636;2022-07-22T02:39:09;98551.63;;;22.04;100.00
56992;BME280;42885;49.754;18.636;2022-07-22T02:41:58;98554.51;;;21.80;100.00
56992;BME280;42885;49.754;18.636;2022-07-22T02:44:48;98550.12;;;22.02;100.00
56992;BME280;42885;49.754;18.636;2022-07-22T02:47:49;98552.07;;;21.91;100.00
56992;BME280;42885;49.754;18.636;2022-07-22T02:50:46;98550.89;;;21.85;100.00
56992;BME280;42885;49.754;18.636;2022-07-22T02:53:37;98560.25;;;21.98;100.00
56992;BME280;42885;49.754;18.636;2022-07-22T02:56:27;98566.73;;;21.91;100.00
56992;BME280;42885;49.754;18.636;2022-07-22T02:59:16;98563.14;;;22.05;100.00
56992;BME280;42885;49.754;18.636;2022-07-22T03:02:05;98556.99;;;22.12;100.00
56992;BME280;42885;49.754;18.636;2022-07-22T03:04:54;98562.51;;;22.19;100.00
56992;BME280;42885;49.754;18.636;2022-07-22T03:07:44;98575.76;;;21.98;100.00
56992;BME280;42885;49.754;18.636;2022-07-22T03:10:33;98577.38;;;21.91;100.00
56992;BME280;42885;49.754;18.636;2022-07-22T03:13:23;98577.38;;;21.91;100.00
56992;BME280;42885;49.754;18.636;2022-07-22T03:16:14;98575.52;;;21.83;100.00
56992;BME280;42885;49.754;18.636;2022-07-22T03:19:04;98582.46;;;22.07;100.00
56992;BME280;42885;49.754;18.636;2022-07-22T03:21:53;98578.67;;;21.87;100.00
56992;BME280;42885;49.754;18.636;2022-07-22T03:24:43;98583.29;;;21.77;100.00
56992;BME280;42885;49.754;18.636;2022-07-22T03:27:32;98579.67;;;21.86;100.00
56992;BME280;42885;49.754;18.636;2022-07-22T03:30:24;98585.42;;;22.04;100.00
56992;BME280;42885;49.754;18.636;2022-07-22T03:33:15;98590.33;;;21.82;100.00
56992;BME280;42885;49.754;18.636;2022-07-22T03:36:05;98584.89;;;21.92;100.00
56992;BME280;42885;49.754;18.636;2022-07-22T03:38:54;98577.05;;;21.90;100.00
56992;BME280;42885;49.754;18.636;2022-07-22T03:41:43;98577.80;;;22.05;100.00
56992;BME280;42885;49.754;18.636;2022-07-22T03:44:33;98575.72;;;21.94;100.00
56992;BME280;42885;49.754;18.636;2022-07-22T03:47:22;98575.80;;;22.11;100.00
56992;BME280;42885;49.754;18.636;2022-07-22T03:50:12;98573.28;;;22.01;100.00
56992;BME280;42885;49.754;18.636;2022-07-22T03:53:01;98578.13;;;22.06;100.00
56992;BME280;42885;49.754;18.636;2022-07-22T03:55:52;98579.71;;;21.90;100.00
56992;BME280;42885;49.754;18.636;2022-07-22T03:58:41;98582.75;;;21.69;100.00
56992;BME280;42885;49.754;18.636;2022-07-22T04:01:32;98583.28;;;21.72;100.00
56992;BME280;42885;49.754;18.636;2022-07-22T04:04:22;98581.13;;;22.11;100.00
56992;BME280;42885;49.754;18.636;2022-07-22T04:07:11;98576.56;;;22.34;100.00
56992;BME280;42885;49.754;18.636;2022-07-22T04:10:03;98578.56;;;21.93;100.00
56992;BME280;42885;49.754;18.636;2022-07-22T04:12:55;98577.98;;;22.11;100.00
56992;BME280;42885;49.754;18.636;2022-07-22T04:15:48;98573.50;;;22.20;100.00
56992;BME280;42885;49.754;18.636;2022-07-22T04:18:37;98570.09;;;21.97;100.00
56992;BME280;42885;49.754;18.636;2022-07-22T04:21:26;98568.02;;;21.61;100.00
56992;BME280;42885;49.754;18.636;2022-07-22T04:24:16;98578.44;;;21.72;100.00
56992;BME280;42885;49.754;18.636;2022-07-22T04:27:06;98578.50;;;22.19;100.00
56992;BME280;42885;49.754;18.636;2022-07-22T04:29:57;98575.72;;;22.25;100.00
56992;BME280;42885;49.754;18.636;2022-07-22T04:32:46;98571.31;;;22.50;100.00
56992;BME280;42885;49.754;18.636;2022-07-22T04:35:37;98576.00;;;22.61;100.00
56992;BME280;42885;49.754;18.636;2022-07-22T04:38:28;98559.44;;;22.49;100.00
56992;BME280;42885;49.754;18.636;2022-07-22T04:41:20;98559.87;;;22.79;100.00
56992;BME280;42885;49.754;18.636;2022-07-22T04:44:10;98563.02;;;22.66;100.00
56992;BME280;42885;49.754;18.636;2022-07-22T04:46:59;98558.34;;;22.68;100.00
56992;BME280;42885;49.754;18.636;2022-07-22T04:49:48;98562.56;;;22.95;100.00
56992;BME280;42885;49.754;18.636;2022-07-22T04:52:36;98569.03;;;22.76;100.00
56992;BME280;42885;49.754;18.636;2022-07-22T04:55:26;98568.91;;;23.03;100.00
56992;BME280;42885;49.754;18.636;2022-07-22T04:58:15;98560.39;;;23.45;100.00
56992;BME280;42885;49.754;18.636;2022-07-22T05:01:06;98570.11;;;23.46;100.00
56992;BME280;42885;49.754;18.636;2022-07-22T05:03:56;98569.05;;;23.72;100.00
56992;BME280;42885;49.754;18.636;2022-07-22T05:06:46;98557.25;;;23.49;100.00
56992;BME280;42885;49.754;18.636;2022-07-22T05:09:35;98554.39;;;23.55;100.00
56992;BME280;42885;49.754;18.636;2022-07-22T05:12:24;98545.47;;;23.79;100.00
56992;BME280;42885;49.754;18.636;2022-07-22T05:15:13;98541.00;;;23.68;100.00
56992;BME280;42885;49.754;18.636;2022-07-22T05:18:02;98524.91;;;23.88;100.00
56992;BME280;42885;49.754;18.636;2022-07-22T05:20:53;98515.08;;;23.85;100.00
56992;BME280;42885;49.754;18.636;2022-07-22T05:23:43;98504.48;;;24.00;100.00
56992;BME280;42885;49.754;18.636;2022-07-22T05:26:33;98506.17;;;23.92;100.00
56992;BME280;42885;49.754;18.636;2022-07-22T05:29:22;98500.86;;;23.88;100.00
56992;BME280;42885;49.754;18.636;2022-07-22T05:32:11;98503.53;;;23.84;100.00
56992;BME280;42885;49.754;18.636;2022-07-22T05:35:01;98496.20;;;23.78;100.00
56992;BME280;42885;49.754;18.636;2022-07-22T05:37:51;98466.41;;;23.58;100.00
56992;BME280;42885;49.754;18.636;2022-07-22T05:40:40;98469.60;;;23.49;100.00
56992;BME280;42885;49.754;18.636;2022-07-22T05:43:29;98486.26;;;23.63;100.00
56992;BME280;42885;49.754;18.636;2022-07-22T05:46:19;98486.20;;;23.80;100.00
56992;BME280;42885;49.754;18.636;2022-07-22T05:49:09;98512.83;;;23.53;100.00
56992;BME280;42885;49.754;18.636;2022-07-22T05:51:59;98551.73;;;23.47;100.00
56992;BME280;42885;49.754;18.636;2022-07-22T05:54:49;98535.98;;;23.73;100.00
56992;BME280;42885;49.754;18.636;2022-07-22T05:57:38;98531.98;;;23.73;100.00
56992;BME280;42885;49.754;18.636;2022-07-22T06:00:27;98569.09;;;23.55;100.00
56992;BME280;42885;49.754;18.636;2022-07-22T06:03:17;98567.59;;;23.32;100.00
56992;BME280;42885;49.754;18.636;2022-07-22T06:06:07;98557.55;;;23.67;100.00
56992;BME280;42885;49.754;18.636;2022-07-22T06:08:58;98565.52;;;23.79;100.00
56992;BME280;42885;49.754;18.636;2022-07-22T06:11:48;98536.23;;;23.99;100.00
56992;BME280;42885;49.754;18.636;2022-07-22T06:14:40;98546.27;;;23.92;100.00
56992;BME280;42885;49.754;18.636;2022-07-22T06:17:29;98572.58;;;23.60;100.00
56992;BME280;42885;49.754;18.636;2022-07-22T06:20:20;98553.98;;;23.83;100.00
56992;BME280;42885;49.754;18.636;2022-07-22T06:23:09;98535.41;;;23.94;100.00
56992;BME280;42885;49.754;18.636;2022-07-22T06:25:59;98552.23;;;24.11;100.00
56992;BME280;42885;49.754;18.636;2022-07-22T06:28:52;98546.63;;;23.89;100.00
56992;BME280;42885;49.754;18.636;2022-07-22T06:31:41;98541.20;;;24.50;100.00
56992;BME280;42885;49.754;18.636;2022-07-22T06:34:31;98535.98;;;24.53;100.00
56992;BME280;42885;49.754;18.636;2022-07-22T06:37:22;98542.22;;;24.49;100.00
56992;BME280;42885;49.754;18.636;2022-07-22T06:40:12;98534.66;;;24.80;100.00
56992;BME280;42885;49.754;18.636;2022-07-22T06:43:03;98538.00;;;24.78;100.00
56992;BME280;42885;49.754;18.636;2022-07-22T06:45:54;98540.42;;;24.65;100.00
56992;BME280;42885;49.754;18.636;2022-07-22T06:48:45;98530.80;;;24.83;100.00
56992;BME280;42885;49.754;18.636;2022-07-22T06:51:35;98535.86;;;25.01;100.00
56992;BME280;42885;49.754;18.636;2022-07-22T06:54:24;98533.72;;;24.96;100.00
56992;BME280;42885;49.754;18.636;2022-07-22T07:00:25;98530.84;;;24.98;100.00
56992;BME280;42885;49.754;18.636;2022-07-22T07:03:35;98531.77;;;24.86;100.00
56992;BME280;42885;49.754;18.636;2022-07-22T07:06:35;98532.42;;;25.31;100.00
56992;BME280;42885;49.754;18.636;2022-07-22T07:09:48;98528.64;;;25.40;100.00
56992;BME280;42885;49.754;18.636;2022-07-22T07:13:07;98533.23;;;25.54;100.00
56992;BME280;42885;49.754;18.636;2022-07-22T07:16:06;98531.06;;;25.84;100.00
56992;BME280;42885;49.754;18.636;2022-07-22T07:19:01;98527.11;;;26.58;100.00
56992;BME280;42885;49.754;18.636;2022-07-22T07:21:47;98530.94;;;26.22;100.00
56992;BME280;42885;49.754;18.636;2022-07-22T07:24:37;98523.42;;;26.18;100.00
56992;BME280;42885;49.754;18.636;2022-07-22T07:27:26;98538.00;;;26.19;100.00
56992;BME280;42885;49.754;18.636;2022-07-22T07:33:37;98525.91;;;26.34;100.00
56992;BME280;42885;49.754;18.636;2022-07-22T07:36:29;98528.64;;;26.56;100.00
56992;BME280;42885;49.754;18.636;2022-07-22T07:39:24;98534.52;;;26.66;98.73
56992;BME280;42885;49.754;18.636;2022-07-22T07:42:17;98524.81;;;26.87;94.06
56992;BME280;42885;49.754;18.636;2022-07-22T07:45:08;98524.45;;;26.90;95.01
56992;BME280;42885;49.754;18.636;2022-07-22T07:47:58;98529.16;;;26.88;92.72
56992;BME280;42885;49.754;18.636;2022-07-22T07:50:48;98524.98;;;26.42;99.98
56992;BME280;42885;49.754;18.636;2022-07-22T07:53:47;98523.19;;;26.38;98.11
56992;BME280;42885;49.754;18.636;2022-07-22T07:56:53;98527.92;;;26.36;100.00
56992;BME280;42885;49.754;18.636;2022-07-22T07:59:44;98535.80;;;26.23;98.74
56992;BME280;42885;49.754;18.636;2022-07-22T08:02:33;98531.81;;;26.04;100.00
56992;BME280;42885;49.754;18.636;2022-07-22T08:05:22;98536.94;;;26.09;100.00
56992;BME280;42885;49.754;18.636;2022-07-22T08:08:16;98528.42;;;26.36;100.00
56992;BME280;42885;49.754;18.636;2022-07-22T08:11:07;98526.80;;;26.57;100.00
56992;BME280;42885;49.754;18.636;2022-07-22T08:14:01;98528.30;;;27.03;100.00
56992;BME280;42885;49.754;18.636;2022-07-22T08:17:02;98529.73;;;26.73;100.00
56992;BME280;42885;49.754;18.636;2022-07-22T08:20:05;98521.47;;;26.85;97.13
56992;BME280;42885;49.754;18.636;2022-07-22T08:22:56;98528.11;;;27.22;97.51
56992;BME280;42885;49.754;18.636;2022-07-22T08:25:49;98523.69;;;27.07;94.23
56992;BME280;42885;49.754;18.636;2022-07-22T08:28:51;98529.87;;;26.97;94.18
56992;BME280;42885;49.754;18.636;2022-07-22T08:31:42;98535.34;;;26.56;95.80
56992;BME280;42885;49.754;18.636;2022-07-22T08:34:33;98534.39;;;26.27;100.00
56992;BME280;42885;49.754;18.636;2022-07-22T08:37:27;98533.74;;;26.40;98.31
56992;BME280;42885;49.754;18.636;2022-07-22T08:40:18;98533.89;;;26.75;93.22
56992;BME280;42885;49.754;18.636;2022-07-22T08:43:10;98537.16;;;27.14;92.22
56992;BME280;42885;49.754;18.636;2022-07-22T08:46:06;98538.80;;;27.26;89.87
56992;BME280;42885;49.754;18.636;2022-07-22T08:49:17;98542.66;;;27.17;90.57
56992;BME280;42885;49.754;18.636;2022-07-22T08:52:18;98544.51;;;27.05;91.27
56992;BME280;42885;49.754;18.636;2022-07-22T08:55:11;98539.34;;;27.72;89.52
56992;BME280;42885;49.754;18.636;2022-07-22T08:58:07;98534.45;;;27.54;90.69
56992;BME280;42885;49.754;18.636;2022-07-22T09:01:09;98545.80;;;27.49;88.51
56992;BME280;42885;49.754;18.636;2022-07-22T09:04:03;98545.80;;;27.49;88.51
56992;BME280;42885;49.754;18.636;2022-07-22T09:06:54;98541.48;;;28.08;85.72
56992;BME280;42885;49.754;18.636;2022-07-22T09:09:46;98546.97;;;28.03;87.11
56992;BME280;42885;49.754;18.636;2022-07-22T09:12:58;98543.67;;;28.08;86.36
56992;BME280;42885;49.754;18.636;2022-07-22T09:16:05;98538.91;;;28.66;80.91
56992;BME280;42885;49.754;18.636;2022-07-22T09:19:05;98538.91;;;28.66;80.91
56992;BME280;42885;49.754;18.636;2022-07-22T09:22:13;98538.08;;;28.10;83.92
56992;BME280;42885;49.754;18.636;2022-07-22T09:25:27;98532.74;;;28.16;81.90
56992;BME280;42885;49.754;18.636;2022-07-22T09:28:34;98531.14;;;28.67;82.35
56992;BME280;42885;49.754;18.636;2022-07-22T09:31:49;98525.42;;;28.90;80.16
56992;BME280;42885;49.754;18.636;2022-07-22T09:34:36;98520.87;;;29.04;77.65
56992;BME280;42885;49.754;18.636;2022-07-22T09:37:33;98531.14;;;28.67;79.86
56992;BME280;42885;49.754;18.636;2022-07-22T09:40:25;98534.06;;;28.72;78.31
56992;BME280;42885;49.754;18.636;2022-07-22T09:43:18;98531.73;;;29.00;76.27
56992;BME280;42885;49.754;18.636;2022-07-22T09:46:07;98526.57;;;29.19;72.19
56992;BME280;42885;49.754;18.636;2022-07-22T09:49:14;98523.46;;;29.15;72.02
56992;BME280;42885;49.754;18.636;2022-07-22T09:52:05;98527.02;;;28.78;71.24
56992;BME280;42885;49.754;18.636;2022-07-22T09:54:56;98520.87;;;29.04;77.05
56992;BME280;42885;49.754;18.636;2022-07-22T09:57:49;98520.13;;;29.40;74.52
56992;BME280;42885;49.754;18.636;2022-07-22T10:00:39;98520.31;;;28.84;78.09
56992;BME280;42885;49.754;18.636;2022-07-22T10:03:31;98519.28;;;29.26;77.02
56992;BME280;42885;49.754;18.636;2022-07-22T10:06:21;98515.28;;;29.76;70.93
56992;BME280;42885;49.754;18.636;2022-07-22T10:09:11;98517.80;;;30.07;71.32
56992;BME280;42885;49.754;18.636;2022-07-22T10:12:03;98518.30;;;30.13;70.73
56992;BME280;42885;49.754;18.636;2022-07-22T10:14:56;98521.45;;;29.97;66.80
56992;BME280;42885;49.754;18.636;2022-07-22T10:17:49;98510.81;;;30.38;65.40
56992;BME280;42885;49.754;18.636;2022-07-22T10:20:37;98512.09;;;30.52;64.66
56992;BME280;42885;49.754;18.636;2022-07-22T10:23:26;98508.27;;;29.98;63.51
56992;BME280;42885;49.754;18.636;2022-07-22T10:26:16;98516.30;;;29.88;64.24
56992;BME280;42885;49.754;18.636;2022-07-22T10:29:24;98503.36;;;30.33;64.23
56992;BME280;42885;49.754;18.636;2022-07-22T10:38:03;98499.76;;;30.46;64.93
56992;BME280;42885;49.754;18.636;2022-07-22T10:41:05;98495.28;;;31.33;63.83
56992;BME280;42885;49.754;18.636;2022-07-22T10:43:59;98495.05;;;31.09;58.68
56992;BME280;42885;49.754;18.636;2022-07-22T10:46:50;98492.54;;;31.23;56.64
56992;BME280;42885;49.754;18.636;2022-07-22T10:49:40;98484.43;;;31.23;58.24
56992;BME280;42885;49.754;18.636;2022-07-22T10:52:34;98487.43;;;31.50;58.84
56992;BME280;42885;49.754;18.636;2022-07-22T10:55:23;98482.61;;;31.70;59.01
56992;BME280;42885;49.754;18.636;2022-07-22T11:01:32;98483.45;;;31.71;54.68
56992;BME280;42885;49.754;18.636;2022-07-22T11:04:24;98488.99;;;32.13;52.97
56992;BME280;42885;49.754;18.636;2022-07-22T11:07:14;98480.07;;;31.66;50.77
56992;BME280;42885;49.754;18.636;2022-07-22T11:10:14;98476.49;;;31.82;49.51
56992;BME280;42885;49.754;18.636;2022-07-22T11:13:03;98475.81;;;31.86;49.23
56992;BME280;42885;49.754;18.636;2022-07-22T11:15:53;98480.11;;;32.16;46.24
56992;BME280;42885;49.754;18.636;2022-07-22T11:18:50;98471.50;;;31.51;49.56
56992;BME280;42885;49.754;18.636;2022-07-22T11:21:39;98475.68;;;32.21;46.46
56992;BME280;42885;49.754;18.636;2022-07-22T11:24:28;98466.83;;;32.45;46.02
56992;BME280;42885;49.754;18.636;2022-07-22T11:27:19;98464.16;;;32.26;48.79
56992;BME280;42885;49.754;18.636;2022-07-22T11:30:10;98466.28;;;32.45;46.20
56992;BME280;42885;49.754;18.636;2022-07-22T11:32:58;98464.83;;;32.73;47.67
56992;BME280;42885;49.754;18.636;2022-07-22T11:36:04;98469.75;;;32.64;46.17
56992;BME280;42885;49.754;18.636;2022-07-22T11:38:54;98464.59;;;32.63;44.80
56992;BME280;42885;49.754;18.636;2022-07-22T11:41:44;98454.15;;;33.02;44.31
56992;BME280;42885;49.754;18.636;2022-07-22T11:44:35;98451.63;;;32.98;41.39
56992;BME280;42885;49.754;18.636;2022-07-22T11:47:26;98452.66;;;32.85;39.82
56992;BME280;42885;49.754;18.636;2022-07-22T11:50:15;98450.61;;;32.57;42.45
56992;BME280;42885;49.754;18.636;2022-07-22T11:53:04;98442.14;;;33.10;42.32
56992;BME280;42885;49.754;18.636;2022-07-22T11:55:59;98440.09;;;33.80;40.28
56992;BME280;42885;49.754;18.636;2022-07-22T11:58:50;98437.36;;;33.50;40.89
56992;BME280;42885;49.754;18.636;2022-07-22T12:01:40;98434.66;;;33.15;41.90
56992;BME280;42885;49.754;18.636;2022-07-22T12:04:31;98435.73;;;33.78;42.92
56992;BME280;42885;49.754;18.636;2022-07-22T12:07:20;98429.56;;;33.69;41.55
56992;BME280;42885;49.754;18.636;2022-07-22T12:10:09;98426.77;;;33.63;40.85
56992;BME280;42885;49.754;18.636;2022-07-22T12:12:58;98420.09;;;33.30;43.39
56992;BME280;42885;49.754;18.636;2022-07-22T12:15:59;98415.06;;;34.50;43.73
56992;BME280;42885;49.754;18.636;2022-07-22T12:18:54;98414.44;;;34.45;40.58
56992;BME280;42885;49.754;18.636;2022-07-22T12:22:04;98407.00;;;34.41;40.92
56992;BME280;42885;49.754;18.636;2022-07-22T12:25:00;98410.29;;;34.57;39.38
56992;BME280;42885;49.754;18.636;2022-07-22T12:28:01;98406.31;;;34.80;38.05
56992;BME280;42885;49.754;18.636;2022-07-22T12:30:51;98410.47;;;34.68;37.94
56992;BME280;42885;49.754;18.636;2022-07-22T12:33:48;98403.23;;;34.42;38.87
56992;BME280;42885;49.754;18.636;2022-07-22T12:36:37;98403.17;;;33.93;41.29
56992;BME280;42885;49.754;18.636;2022-07-22T12:39:25;98393.61;;;34.19;40.62
56992;BME280;42885;49.754;18.636;2022-07-22T12:42:18;98391.33;;;33.99;42.35
56992;BME280;42885;49.754;18.636;2022-07-22T12:45:12;98391.30;;;34.43;39.94
56992;BME280;42885;49.754;18.636;2022-07-22T12:48:06;98393.92;;;35.26;38.20
56992;BME280;42885;49.754;18.636;2022-07-22T12:50:58;98388.80;;;35.30;38.49
56992;BME280;42885;49.754;18.636;2022-07-22T12:53:48;98385.41;;;34.49;39.36
56992;BME280;42885;49.754;18.636;2022-07-22T12:56:41;98381.92;;;35.05;39.10
56992;BME280;42885;49.754;18.636;2022-07-22T12:59:30;98384.69;;;35.27;37.51
56992;BME280;42885;49.754;18.636;2022-07-22T13:02:19;98374.25;;;35.19;37.89
56992;BME280;42885;49.754;18.636;2022-07-22T13:05:08;98373.48;;;35.46;37.71
56992;BME280;42885;49.754;18.636;2022-07-22T13:07:58;98371.17;;;35.79;36.15
56992;BME280;42885;49.754;18.636;2022-07-22T13:10:46;98365.11;;;36.00;36.65
56992;BME280;42885;49.754;18.636;2022-07-22T13:13:36;98365.92;;;36.63;35.19
56992;BME280;42885;49.754;18.636;2022-07-22T13:16:26;98350.22;;;36.81;34.46
56992;BME280;42885;49.754;18.636;2022-07-22T13:19:15;98357.00;;;37.21;34.80
56992;BME280;42885;49.754;18.636;2022-07-22T13:22:04;98356.55;;;37.48;33.36
56992;BME280;42885;49.754;18.636;2022-07-22T13:24:53;98364.39;;;38.16;32.36
56992;BME280;42885;49.754;18.636;2022-07-22T13:27:43;98359.75;;;36.75;34.44
56992;BME280;42885;49.754;18.636;2022-07-22T13:30:32;98356.75;;;37.30;33.52
56992;BME280;42885;49.754;18.636;2022-07-22T13:33:22;98347.31;;;37.56;34.55
56992;BME280;42885;49.754;18.636;2022-07-22T13:36:11;98350.11;;;37.98;31.87
56992;BME280;42885;49.754;18.636;2022-07-22T13:39:01;98347.14;;;38.38;31.43
56992;BME280;42885;49.754;18.636;2022-07-22T13:41:50;98354.23;;;38.76;30.90
56992;BME280;42885;49.754;18.636;2022-07-22T13:44:39;98351.93;;;39.19;30.81
56992;BME280;42885;49.754;18.636;2022-07-22T13:47:28;98351.47;;;38.81;30.73
56992;BME280;42885;49.754;18.636;2022-07-22T13:50:18;98342.48;;;37.95;31.90
56992;BME280;42885;49.754;18.636;2022-07-22T13:53:07;98342.23;;;37.12;32.96
56992;BME280;42885;49.754;18.636;2022-07-22T13:55:56;98336.72;;;37.78;33.24
56992;BME280;42885;49.754;18.636;2022-07-22T13:58:46;98335.39;;;38.69;31.26
56992;BME280;42885;49.754;18.636;2022-07-22T14:01:37;98328.25;;;37.74;33.21
56992;BME280;42885;49.754;18.636;2022-07-22T14:04:26;98325.00;;;37.85;33.35
56992;BME280;42885;49.754;18.636;2022-07-22T14:07:16;98322.02;;;38.08;32.34
56992;BME280;42885;49.754;18.636;2022-07-22T14:10:05;98316.56;;;38.08;32.26
56992;BME280;42885;49.754;18.636;2022-07-22T14:12:54;98315.16;;;38.49;30.48
56992;BME280;42885;49.754;18.636;2022-07-22T14:15:43;98320.12;;;38.50;31.08
56992;BME280;42885;49.754;18.636;2022-07-22T14:18:32;98311.38;;;38.32;31.29
56992;BME280;42885;49.754;18.636;2022-07-22T14:21:22;98308.05;;;39.43;30.01
56992;BME280;42885;49.754;18.636;2022-07-22T14:24:10;98301.16;;;40.25;29.71
56992;BME280;42885;49.754;18.636;2022-07-22T14:27:00;98307.17;;;39.95;29.71
56992;BME280;42885;49.754;18.636;2022-07-22T14:29:49;98303.31;;;40.28;28.58
56992;BME280;42885;49.754;18.636;2022-07-22T14:32:39;98299.23;;;38.85;31.42
56992;BME280;42885;49.754;18.636;2022-07-22T14:35:28;98300.58;;;39.01;29.49
56992;BME280;42885;49.754;18.636;2022-07-22T14:38:18;98287.69;;;39.06;30.51
56992;BME280;42885;49.754;18.636;2022-07-22T14:41:08;98296.23;;;38.87;31.81
56992;BME280;42885;49.754;18.636;2022-07-22T14:43:57;98299.31;;;38.38;31.28
56992;BME280;42885;49.754;18.636;2022-07-22T14:46:46;98295.27;;;39.73;28.80
56992;BME280;42885;49.754;18.636;2022-07-22T14:49:36;98292.05;;;39.13;28.87
56992;BME280;42885;49.754;18.636;2022-07-22T14:52:26;98298.52;;;39.77;29.06
56992;BME280;42885;49.754;18.636;2022-07-22T14:55:16;98298.45;;;40.52;27.15
56992;BME280;42885;49.754;18.636;2022-07-22T14:58:05;98296.78;;;40.27;27.85
56992;BME280;42885;49.754;18.636;2022-07-22T15:00:53;98294.34;;;38.79;29.45
56992;BME280;42885;49.754;18.636;2022-07-22T15:03:42;98293.83;;;40.18;28.01
56992;BME280;42885;49.754;18.636;2022-07-22T15:06:31;98283.55;;;41.10;26.36
56992;BME280;42885;49.754;18.636;2022-07-22T15:09:22;98287.81;;;40.97;26.23
56992;BME280;42885;49.754;18.636;2022-07-22T15:12:10;98288.24;;;40.28;27.37